sensor_id;sensor_type;location;lat;lon;timestamp;P1;durP1;ratioP1;P2;durP2;ratioP2
19036;SDS011;9651;49.138;8.900;2024-01-15T00:01:00;40.27;;;13.77;;
19036;SDS011;9651;49.138;8.900;2024-01-15T00:05:02;47.47;;;13.53;;
19036;SDS011;9651;49.138;8.900;2024-01-15T00:09:04;44.87;;;14.27;;
19036;SDS011;9651;49.138;8.900;2024-01-15T00:13:06;42.33;;;14.10;;
19036;SDS011;9651;49.138;8.900;2024-01-15T00:17:10;36.67;;;11.87;;
19036;SDS011;9651;49.138;8.900;2024-01-15T00:21:11;40.10;;;14.37;;
19036;SDS011;9651;49.138;8.900;2024-01-15T00:25:13;43.03;;;14.17;;
19036;SDS011;9651;49.138;8.900;2024-01-15T00:29:15;46.27;;;13.90;;
19036;SDS011;9651;49.138;8.900;2024-01-15T00:33:18;47.83;;;13.83;;
19036;SDS011;9651;49.138;8.900;2024-01-15T00:37:20;43.83;;;13.77;;
19036;SDS011;9651;49.138;8.900;2024-01-15T00:41:22;50.27;;;16.47;;
19036;SDS011;9651;49.138;8.900;2024-01-15T00:45:24;40.13;;;15.33;;
19036;SDS011;9651;49.138;8.900;2024-01-15T00:49:27;38.77;;;13.40;;
19036;SDS011;9651;49.138;8.900;2024-01-15T00:53:29;44.20;;;14.50;;
19036;SDS011;9651;49.138;8.900;2024-01-15T00:57:31;41.20;;;13.03;;
19036;SDS011;9651;49.138;8.900;2024-01-15T01:01:33;42.37;;;13.67;;
19036;SDS011;9651;49.138;8.900;2024-01-15T01:05:36;49.57;;;14.93;;
19036;SDS011;9651;49.138;8.900;2024-01-15T01:09:38;46.27;;;14.50;;
19036;SDS011;9651;49.138;8.900;2024-01-15T01:13:40;45.97;;;14.33;;
19036;SDS011;9651;49.138;8.900;2024-01-15T01:17:42;41.13;;;14.70;;
19036;SDS011;9651;49.138;8.900;2024-01-15T01:21:45;38.47;;;12.47;;
19036;SDS011;9651;49.138;8.900;2024-01-15T01:25:47;43.77;;;13.90;;
19036;SDS011;9651;49.138;8.900;2024-01-15T01:29:49;43.47;;;15.07;;
19036;SDS011;9651;49.138;8.900;2024-01-15T01:33:51;40.23;;;13.03;;
19036;SDS011;9651;49.138;8.900;2024-01-15T01:37:55;47.87;;;14.80;;
19036;SDS011;9651;49.138;8.900;2024-01-15T01:41:56;37.80;;;13.00;;
19036;SDS011;9651;49.138;8.900;2024-01-15T01:46:00;37.90;;;12.73;;
19036;SDS011;9651;49.138;8.900;2024-01-15T01:50:03;40.87;;;13.20;;
19036;SDS011;9651;49.138;8.900;2024-01-15T01:54:07;33.80;;;11.83;;
19036;SDS011;9651;49.138;8.900;2024-01-15T01:58:11;35.87;;;11.10;;
19036;SDS011;9651;49.138;8.900;2024-01-15T02:02:13;41.10;;;13.13;;
19036;SDS011;9651;49.138;8.900;2024-01-15T02:06:16;39.90;;;13.37;;
19036;SDS011;9651;49.138;8.900;2024-01-15T02:10:20;31.57;;;11.63;;
19036;SDS011;9651;49.138;8.900;2024-01-15T02:14:22;34.10;;;12.77;;
19036;SDS011;9651;49.138;8.900;2024-01-15T02:18:24;35.23;;;12.20;;
19036;SDS011;9651;49.138;8.900;2024-01-15T02:22:25;39.57;;;14.80;;
19036;SDS011;9651;49.138;8.900;2024-01-15T02:26:29;35.47;;;12.73;;
19036;SDS011;9651;49.138;8.900;2024-01-15T02:30:30;39.43;;;12.97;;
19036;SDS011;9651;49.138;8.900;2024-01-15T02:34:33;43.30;;;13.93;;
19036;SDS011;9651;49.138;8.900;2024-01-15T02:38:35;34.67;;;12.20;;
19036;SDS011;9651;49.138;8.900;2024-01-15T02:42:38;39.17;;;13.27;;
19036;SDS011;9651;49.138;8.900;2024-01-15T02:46:40;38.33;;;13.67;;
19036;SDS011;9651;49.138;8.900;2024-01-15T02:50:42;33.67;;;13.50;;
19036;SDS011;9651;49.138;8.900;2024-01-15T02:54:43;36.17;;;12.53;;
19036;SDS011;9651;49.138;8.900;2024-01-15T02:58:47;34.17;;;12.43;;
19036;SDS011;9651;49.138;8.900;2024-01-15T03:02:49;32.67;;;13.30;;
19036;SDS011;9651;49.138;8.900;2024-01-15T03:06:52;40.93;;;13.47;;
19036;SDS011;9651;49.138;8.900;2024-01-15T03:10:54;37.27;;;12.30;;
19036;SDS011;9651;49.138;8.900;2024-01-15T03:14:57;42.67;;;14.70;;
19036;SDS011;9651;49.138;8.900;2024-01-15T03:18:59;37.50;;;13.13;;
19036;SDS011;9651;49.138;8.900;2024-01-15T03:23:01;39.77;;;15.00;;
19036;SDS011;9651;49.138;8.900;2024-01-15T03:27:03;38.97;;;12.40;;
19036;SDS011;9651;49.138;8.900;2024-01-15T03:31:06;40.93;;;13.07;;
19036;SDS011;9651;49.138;8.900;2024-01-15T03:35:09;42.83;;;15.00;;
19036;SDS011;9651;49.138;8.900;2024-01-15T03:39:10;37.93;;;14.27;;
19036;SDS011;9651;49.138;8.900;2024-01-15T03:43:12;38.27;;;12.83;;
19036;SDS011;9651;49.138;8.900;2024-01-15T03:47:15;35.40;;;13.10;;
19036;SDS011;9651;49.138;8.900;2024-01-15T03:51:17;35.13;;;13.07;;
19036;SDS011;9651;49.138;8.900;2024-01-15T03:55:19;33.63;;;12.70;;
19036;SDS011;9651;49.138;8.900;2024-01-15T03:59:21;41.17;;;14.70;;
19036;SDS011;9651;49.138;8.900;2024-01-15T04:03:24;32.90;;;13.73;;
19036;SDS011;9651;49.138;8.900;2024-01-15T04:07:26;37.80;;;13.87;;
19036;SDS011;9651;49.138;8.900;2024-01-15T04:11:28;41.80;;;14.03;;
19036;SDS011;9651;49.138;8.900;2024-01-15T04:15:30;40.70;;;14.43;;
19036;SDS011;9651;49.138;8.900;2024-01-15T04:19:33;33.13;;;13.37;;
19036;SDS011;9651;49.138;8.900;2024-01-15T04:23:35;38.00;;;12.73;;
19036;SDS011;9651;49.138;8.900;2024-01-15T04:27:37;29.10;;;12.13;;
19036;SDS011;9651;49.138;8.900;2024-01-15T04:31:39;28.73;;;11.57;;
19036;SDS011;9651;49.138;8.900;2024-01-15T04:35:42;35.03;;;13.17;;
19036;SDS011;9651;49.138;8.900;2024-01-15T04:39:44;35.37;;;12.53;;
19036;SDS011;9651;49.138;8.900;2024-01-15T04:43:46;34.20;;;12.90;;
19036;SDS011;9651;49.138;8.900;2024-01-15T04:47:48;30.17;;;12.43;;
19036;SDS011;9651;49.138;8.900;2024-01-15T04:51:51;31.77;;;11.23;;
19036;SDS011;9651;49.138;8.900;2024-01-15T04:55:53;33.13;;;12.03;;
19036;SDS011;9651;49.138;8.900;2024-01-15T04:59:55;31.17;;;13.00;;
19036;SDS011;9651;49.138;8.900;2024-01-15T05:03:56;33.30;;;11.83;;
19036;SDS011;9651;49.138;8.900;2024-01-15T05:08:00;31.63;;;11.93;;
19036;SDS011;9651;49.138;8.900;2024-01-15T05:12:02;39.17;;;13.50;;
19036;SDS011;9651;49.138;8.900;2024-01-15T05:16:04;29.70;;;12.60;;
19036;SDS011;9651;49.138;8.900;2024-01-15T05:20:06;34.10;;;12.40;;
19036;SDS011;9651;49.138;8.900;2024-01-15T05:24:10;31.97;;;11.47;;
19036;SDS011;9651;49.138;8.900;2024-01-15T05:28:12;34.40;;;12.20;;
19036;SDS011;9651;49.138;8.900;2024-01-15T05:32:14;26.97;;;11.27;;
19036;SDS011;9651;49.138;8.900;2024-01-15T05:36:16;30.20;;;11.27;;
19036;SDS011;9651;49.138;8.900;2024-01-15T05:40:20;32.20;;;13.77;;
19036;SDS011;9651;49.138;8.900;2024-01-15T05:44:21;32.37;;;11.63;;
19036;SDS011;9651;49.138;8.900;2024-01-15T05:48:23;28.90;;;10.80;;
19036;SDS011;9651;49.138;8.900;2024-01-15T05:52:25;26.77;;;10.60;;
19036;SDS011;9651;49.138;8.900;2024-01-15T05:56:28;35.17;;;13.07;;
19036;SDS011;9651;49.138;8.900;2024-01-15T06:00:30;33.97;;;12.13;;
19036;SDS011;9651;49.138;8.900;2024-01-15T06:04:33;22.60;;;9.93;;
19036;SDS011;9651;49.138;8.900;2024-01-15T06:08:35;31.17;;;11.63;;
19036;SDS011;9651;49.138;8.900;2024-01-15T06:12:38;29.43;;;12.47;;
19036;SDS011;9651;49.138;8.900;2024-01-15T06:16:40;30.90;;;12.07;;
19036;SDS011;9651;49.138;8.900;2024-01-15T06:20:42;29.07;;;11.93;;
19036;SDS011;9651;49.138;8.900;2024-01-15T06:24:44;30.43;;;11.30;;
19036;SDS011;9651;49.138;8.900;2024-01-15T06:28:47;33.63;;;12.33;;
19036;SDS011;9651;49.138;8.900;2024-01-15T06:32:49;28.27;;;11.07;;
19036;SDS011;9651;49.138;8.900;2024-01-15T06:36:51;28.23;;;12.23;;
19036;SDS011;9651;49.138;8.900;2024-01-15T06:40:53;26.93;;;10.97;;
19036;SDS011;9651;49.138;8.900;2024-01-15T06:44:56;30.13;;;11.60;;
19036;SDS011;9651;49.138;8.900;2024-01-15T06:48:58;31.73;;;11.73;;
19036;SDS011;9651;49.138;8.900;2024-01-15T06:53:00;28.10;;;12.33;;
19036;SDS011;9651;49.138;8.900;2024-01-15T06:57:02;29.97;;;12.27;;
19036;SDS011;9651;49.138;8.900;2024-01-15T07:01:05;27.23;;;11.20;;
19036;SDS011;9651;49.138;8.900;2024-01-15T07:05:08;30.50;;;12.23;;
19036;SDS011;9651;49.138;8.900;2024-01-15T07:09:10;36.77;;;13.47;;
19036;SDS011;9651;49.138;8.900;2024-01-15T07:13:11;32.37;;;13.03;;
19036;SDS011;9651;49.138;8.900;2024-01-15T07:17:15;40.30;;;14.53;;
19036;SDS011;9651;49.138;8.900;2024-01-15T07:21:17;30.50;;;13.60;;
19036;SDS011;9651;49.138;8.900;2024-01-15T07:25:19;37.00;;;13.93;;
19036;SDS011;9651;49.138;8.900;2024-01-15T07:29:21;39.13;;;14.37;;
19036;SDS011;9651;49.138;8.900;2024-01-15T07:33:24;32.80;;;14.13;;
19036;SDS011;9651;49.138;8.900;2024-01-15T07:37:26;31.87;;;13.13;;
19036;SDS011;9651;49.138;8.900;2024-01-15T07:41:28;33.33;;;14.10;;
19036;SDS011;9651;49.138;8.900;2024-01-15T07:45:30;34.97;;;14.47;;
19036;SDS011;9651;49.138;8.900;2024-01-15T07:49:34;35.83;;;14.03;;
19036;SDS011;9651;49.138;8.900;2024-01-15T07:53:35;37.20;;;13.97;;
19036;SDS011;9651;49.138;8.900;2024-01-15T07:57:37;31.03;;;12.80;;
19036;SDS011;9651;49.138;8.900;2024-01-15T08:01:39;28.90;;;12.97;;
19036;SDS011;9651;49.138;8.900;2024-01-15T08:05:42;30.97;;;12.33;;
19036;SDS011;9651;49.138;8.900;2024-01-15T08:09:44;34.57;;;13.43;;
19036;SDS011;9651;49.138;8.900;2024-01-15T08:13:48;38.43;;;14.03;;
19036;SDS011;9651;49.138;8.900;2024-01-15T08:17:49;35.93;;;14.23;;
19036;SDS011;9651;49.138;8.900;2024-01-15T08:21:53;33.67;;;13.63;;
19036;SDS011;9651;49.138;8.900;2024-01-15T08:25:55;36.27;;;13.40;;
19036;SDS011;9651;49.138;8.900;2024-01-15T08:29:56;33.10;;;13.03;;
19036;SDS011;9651;49.138;8.900;2024-01-15T08:33:58;33.73;;;13.60;;
19036;SDS011;9651;49.138;8.900;2024-01-15T08:38:03;30.70;;;12.57;;
19036;SDS011;9651;49.138;8.900;2024-01-15T08:42:06;33.93;;;13.17;;
19036;SDS011;9651;49.138;8.900;2024-01-15T08:46:07;32.47;;;12.53;;
19036;SDS011;9651;49.138;8.900;2024-01-15T08:50:09;30.10;;;11.57;;
19036;SDS011;9651;49.138;8.900;2024-01-15T08:54:13;30.03;;;12.07;;
19036;SDS011;9651;49.138;8.900;2024-01-15T08:58:15;31.40;;;13.57;;
19036;SDS011;9651;49.138;8.900;2024-01-15T09:02:17;28.20;;;11.37;;
19036;SDS011;9651;49.138;8.900;2024-01-15T09:06:20;27.57;;;11.10;;
19036;SDS011;9651;49.138;8.900;2024-01-15T09:10:24;26.17;;;11.73;;
19036;SDS011;9651;49.138;8.900;2024-01-15T09:14:25;26.53;;;10.83;;
19036;SDS011;9651;49.138;8.900;2024-01-15T09:18:29;24.70;;;10.67;;
19036;SDS011;9651;49.138;8.900;2024-01-15T09:22:31;23.90;;;10.10;;
19036;SDS011;9651;49.138;8.900;2024-01-15T09:26:35;25.77;;;10.30;;
19036;SDS011;9651;49.138;8.900;2024-01-15T09:30:37;26.37;;;11.30;;
19036;SDS011;9651;49.138;8.900;2024-01-15T09:34:38;21.07;;;9.90;;
19036;SDS011;9651;49.138;8.900;2024-01-15T09:38:41;23.20;;;8.93;;
19036;SDS011;9651;49.138;8.900;2024-01-15T09:42:44;22.93;;;9.53;;
19036;SDS011;9651;49.138;8.900;2024-01-15T09:46:48;24.73;;;9.90;;
19036;SDS011;9651;49.138;8.900;2024-01-15T09:50:50;21.30;;;9.47;;
19036;SDS011;9651;49.138;8.900;2024-01-15T09:54:54;25.17;;;9.87;;
19036;SDS011;9651;49.138;8.900;2024-01-15T09:58:57;26.80;;;10.67;;
19036;SDS011;9651;49.138;8.900;2024-01-15T10:02:59;25.57;;;10.53;;
19036;SDS011;9651;49.138;8.900;2024-01-15T10:07:01;28.53;;;10.63;;
19036;SDS011;9651;49.138;8.900;2024-01-15T10:11:06;23.33;;;10.03;;
19036;SDS011;9651;49.138;8.900;2024-01-15T10:15:10;26.30;;;10.10;;
19036;SDS011;9651;49.138;8.900;2024-01-15T10:19:13;28.50;;;11.33;;
19036;SDS011;9651;49.138;8.900;2024-01-15T10:23:15;24.07;;;11.00;;
19036;SDS011;9651;49.138;8.900;2024-01-15T10:27:17;26.13;;;11.63;;
19036;SDS011;9651;49.138;8.900;2024-01-15T10:31:20;27.87;;;10.97;;
19036;SDS011;9651;49.138;8.900;2024-01-15T10:35:22;29.67;;;12.13;;
19036;SDS011;9651;49.138;8.900;2024-01-15T10:39:27;29.77;;;11.57;;
19036;SDS011;9651;49.138;8.900;2024-01-15T10:43:29;25.70;;;10.63;;
19036;SDS011;9651;49.138;8.900;2024-01-15T10:47:32;22.80;;;9.80;;
19036;SDS011;9651;49.138;8.900;2024-01-15T10:51:34;29.80;;;11.80;;
19036;SDS011;9651;49.138;8.900;2024-01-15T10:55:36;28.07;;;12.97;;
19036;SDS011;9651;49.138;8.900;2024-01-15T10:59:39;32.43;;;12.10;;
19036;SDS011;9651;49.138;8.900;2024-01-15T11:03:43;31.03;;;11.97;;
19036;SDS011;9651;49.138;8.900;2024-01-15T11:07:45;33.17;;;13.17;;
19036;SDS011;9651;49.138;8.900;2024-01-15T11:11:47;25.60;;;11.50;;
19036;SDS011;9651;49.138;8.900;2024-01-15T11:15:55;28.80;;;12.27;;
19036;SDS011;9651;49.138;8.900;2024-01-15T11:20:01;32.63;;;11.53;;
19036;SDS011;9651;49.138;8.900;2024-01-15T11:24:08;33.57;;;11.97;;
19036;SDS011;9651;49.138;8.900;2024-01-15T11:28:12;25.97;;;10.93;;
19036;SDS011;9651;49.138;8.900;2024-01-15T11:32:55;21.67;;;11.10;;
19036;SDS011;9651;49.138;8.900;2024-01-15T11:37:07;30.40;;;11.67;;
19036;SDS011;9651;49.138;8.900;2024-01-15T11:41:13;25.47;;;11.63;;
19036;SDS011;9651;49.138;8.900;2024-01-15T11:45:16;24.97;;;11.17;;
19036;SDS011;9651;49.138;8.900;2024-01-15T11:49:23;28.30;;;10.97;;
19036;SDS011;9651;49.138;8.900;2024-01-15T11:53:40;26.27;;;9.80;;
19036;SDS011;9651;49.138;8.900;2024-01-15T11:57:46;26.27;;;10.63;;
19036;SDS011;9651;49.138;8.900;2024-01-15T12:01:51;20.57;;;9.07;;
19036;SDS011;9651;49.138;8.900;2024-01-15T12:05:53;23.20;;;9.90;;
19036;SDS011;9651;49.138;8.900;2024-01-15T12:09:57;17.20;;;8.43;;
19036;SDS011;9651;49.138;8.900;2024-01-15T12:13:59;20.27;;;9.63;;
19036;SDS011;9651;49.138;8.900;2024-01-15T12:18:01;21.77;;;8.97;;
19036;SDS011;9651;49.138;8.900;2024-01-15T12:22:04;18.73;;;7.97;;
19036;SDS011;9651;49.138;8.900;2024-01-15T12:26:07;19.13;;;9.17;;
19036;SDS011;9651;49.138;8.900;2024-01-15T12:30:10;20.13;;;8.63;;
19036;SDS011;9651;49.138;8.900;2024-01-15T12:34:13;21.37;;;9.17;;
19036;SDS011;9651;49.138;8.900;2024-01-15T12:38:15;19.80;;;8.97;;
19036;SDS011;9651;49.138;8.900;2024-01-15T12:42:21;19.17;;;9.33;;
19036;SDS011;9651;49.138;8.900;2024-01-15T12:46:24;22.07;;;9.23;;
19036;SDS011;9651;49.138;8.900;2024-01-15T12:50:26;20.67;;;10.73;;
19036;SDS011;9651;49.138;8.900;2024-01-15T12:54:28;22.70;;;9.93;;
19036;SDS011;9651;49.138;8.900;2024-01-15T12:58:31;22.03;;;9.43;;
19036;SDS011;9651;49.138;8.900;2024-01-15T13:02:33;18.70;;;10.67;;
19036;SDS011;9651;49.138;8.900;2024-01-15T13:06:35;19.43;;;9.10;;
19036;SDS011;9651;49.138;8.900;2024-01-15T13:10:38;18.60;;;9.20;;
19036;SDS011;9651;49.138;8.900;2024-01-15T13:14:43;21.10;;;10.33;;
19036;SDS011;9651;49.138;8.900;2024-01-15T13:18:45;17.90;;;9.60;;
19036;SDS011;9651;49.138;8.900;2024-01-15T13:22:47;17.13;;;8.93;;
19036;SDS011;9651;49.138;8.900;2024-01-15T13:26:49;18.10;;;8.73;;
19036;SDS011;9651;49.138;8.900;2024-01-15T13:30:52;23.80;;;10.20;;
19036;SDS011;9651;49.138;8.900;2024-01-15T13:34:55;20.37;;;9.73;;
19036;SDS011;9651;49.138;8.900;2024-01-15T13:38:57;22.07;;;10.27;;
19036;SDS011;9651;49.138;8.900;2024-01-15T13:42:59;17.97;;;9.23;;
19036;SDS011;9651;49.138;8.900;2024-01-15T13:47:03;17.80;;;8.63;;
19036;SDS011;9651;49.138;8.900;2024-01-15T13:51:05;18.53;;;9.73;;
19036;SDS011;9651;49.138;8.900;2024-01-15T13:55:07;18.87;;;9.17;;
19036;SDS011;9651;49.138;8.900;2024-01-15T13:59:09;20.00;;;9.47;;
19036;SDS011;9651;49.138;8.900;2024-01-15T14:03:13;19.17;;;9.97;;
19036;SDS011;9651;49.138;8.900;2024-01-15T14:07:15;15.40;;;10.10;;
19036;SDS011;9651;49.138;8.900;2024-01-15T14:11:17;16.57;;;8.70;;
19036;SDS011;9651;49.138;8.900;2024-01-15T14:15:18;16.10;;;7.70;;
19036;SDS011;9651;49.138;8.900;2024-01-15T14:19:23;16.00;;;8.10;;
19036;SDS011;9651;49.138;8.900;2024-01-15T14:23:24;18.20;;;10.40;;
19036;SDS011;9651;49.138;8.900;2024-01-15T14:27:26;15.53;;;8.17;;
19036;SDS011;9651;49.138;8.900;2024-01-15T14:31:28;16.93;;;8.60;;
19036;SDS011;9651;49.138;8.900;2024-01-15T14:35:34;14.43;;;8.87;;
19036;SDS011;9651;49.138;8.900;2024-01-15T14:39:37;20.33;;;11.27;;
19036;SDS011;9651;49.138;8.900;2024-01-15T14:43:39;16.33;;;8.77;;
19036;SDS011;9651;49.138;8.900;2024-01-15T14:47:41;20.60;;;8.80;;
19036;SDS011;9651;49.138;8.900;2024-01-15T14:51:45;25.87;;;13.30;;
19036;SDS011;9651;49.138;8.900;2024-01-15T14:55:49;29.93;;;15.07;;
19036;SDS011;9651;49.138;8.900;2024-01-15T14:59:51;15.13;;;8.53;;
19036;SDS011;9651;49.138;8.900;2024-01-15T15:03:53;13.70;;;7.00;;
19036;SDS011;9651;49.138;8.900;2024-01-15T15:07:56;13.07;;;7.53;;
19036;SDS011;9651;49.138;8.900;2024-01-15T15:11:58;12.97;;;7.30;;
19036;SDS011;9651;49.138;8.900;2024-01-15T15:16:00;14.37;;;7.67;;
19036;SDS011;9651;49.138;8.900;2024-01-15T15:20:02;12.77;;;7.23;;
19036;SDS011;9651;49.138;8.900;2024-01-15T15:24:05;12.83;;;7.13;;
19036;SDS011;9651;49.138;8.900;2024-01-15T15:28:07;15.40;;;7.50;;
19036;SDS011;9651;49.138;8.900;2024-01-15T15:32:11;12.47;;;7.20;;
19036;SDS011;9651;49.138;8.900;2024-01-15T15:36:14;13.27;;;7.40;;
19036;SDS011;9651;49.138;8.900;2024-01-15T15:40:17;13.00;;;7.30;;
19036;SDS011;9651;49.138;8.900;2024-01-15T15:44:19;15.67;;;7.13;;
19036;SDS011;9651;49.138;8.900;2024-01-15T15:48:20;11.63;;;6.73;;
19036;SDS011;9651;49.138;8.900;2024-01-15T15:52:22;15.17;;;7.13;;
19036;SDS011;9651;49.138;8.900;2024-01-15T15:56:25;18.93;;;8.67;;
19036;SDS011;9651;49.138;8.900;2024-01-15T16:00:27;13.33;;;8.57;;
19036;SDS011;9651;49.138;8.900;2024-01-15T16:04:29;14.43;;;6.90;;
19036;SDS011;9651;49.138;8.900;2024-01-15T16:08:32;12.43;;;6.67;;
19036;SDS011;9651;49.138;8.900;2024-01-15T16:12:35;11.80;;;6.50;;
19036;SDS011;9651;49.138;8.900;2024-01-15T16:16:38;11.53;;;6.13;;
19036;SDS011;9651;49.138;8.900;2024-01-15T16:20:40;13.97;;;6.60;;
19036;SDS011;9651;49.138;8.900;2024-01-15T16:24:42;17.90;;;8.77;;
19036;SDS011;9651;49.138;8.900;2024-01-15T16:28:45;15.63;;;6.97;;
19036;SDS011;9651;49.138;8.900;2024-01-15T16:32:47;15.40;;;7.23;;
19036;SDS011;9651;49.138;8.900;2024-01-15T16:36:49;12.17;;;6.50;;
19036;SDS011;9651;49.138;8.900;2024-01-15T16:40:51;19.63;;;10.03;;
19036;SDS011;9651;49.138;8.900;2024-01-15T16:44:55;19.07;;;8.17;;
19036;SDS011;9651;49.138;8.900;2024-01-15T16:48:57;21.93;;;10.67;;
19036;SDS011;9651;49.138;8.900;2024-01-15T16:53:00;19.73;;;8.50;;
19036;SDS011;9651;49.138;8.900;2024-01-15T16:57:02;19.63;;;9.27;;
19036;SDS011;9651;49.138;8.900;2024-01-15T17:01:06;13.33;;;7.87;;
19036;SDS011;9651;49.138;8.900;2024-01-15T17:05:08;13.47;;;7.30;;
19036;SDS011;9651;49.138;8.900;2024-01-15T17:09:11;13.90;;;8.20;;
19036;SDS011;9651;49.138;8.900;2024-01-15T17:13:13;16.40;;;7.67;;
19036;SDS011;9651;49.138;8.900;2024-01-15T17:17:16;14.47;;;7.70;;
19036;SDS011;9651;49.138;8.900;2024-01-15T17:21:19;15.57;;;6.67;;
19036;SDS011;9651;49.138;8.900;2024-01-15T17:25:21;15.87;;;8.20;;
19036;SDS011;9651;49.138;8.900;2024-01-15T17:29:23;15.00;;;7.30;;
19036;SDS011;9651;49.138;8.900;2024-01-15T17:33:27;13.53;;;6.50;;
19036;SDS011;9651;49.138;8.900;2024-01-15T17:37:29;11.37;;;5.87;;
19036;SDS011;9651;49.138;8.900;2024-01-15T17:41:31;11.63;;;6.73;;
19036;SDS011;9651;49.138;8.900;2024-01-15T17:45:33;11.80;;;5.97;;
19036;SDS011;9651;49.138;8.900;2024-01-15T17:49:37;10.93;;;6.33;;
19036;SDS011;9651;49.138;8.900;2024-01-15T17:53:39;12.33;;;5.57;;
19036;SDS011;9651;49.138;8.900;2024-01-15T17:57:41;11.07;;;7.17;;
19036;SDS011;9651;49.138;8.900;2024-01-15T18:01:43;11.97;;;6.17;;
19036;SDS011;9651;49.138;8.900;2024-01-15T18:05:48;11.90;;;6.77;;
19036;SDS011;9651;49.138;8.900;2024-01-15T18:09:49;14.73;;;5.83;;
19036;SDS011;9651;49.138;8.900;2024-01-15T18:13:51;10.67;;;6.70;;
19036;SDS011;9651;49.138;8.900;2024-01-15T18:17:53;13.57;;;6.53;;
19036;SDS011;9651;49.138;8.900;2024-01-15T18:21:57;11.50;;;6.27;;
19036;SDS011;9651;49.138;8.900;2024-01-15T18:25:58;12.00;;;6.13;;
19036;SDS011;9651;49.138;8.900;2024-01-15T18:30:00;13.27;;;6.03;;
19036;SDS011;9651;49.138;8.900;2024-01-15T18:34:02;10.17;;;5.23;;
19036;SDS011;9651;49.138;8.900;2024-01-15T18:38:06;8.37;;;4.87;;
19036;SDS011;9651;49.138;8.900;2024-01-15T18:42:07;13.03;;;5.23;;
19036;SDS011;9651;49.138;8.900;2024-01-15T18:46:09;9.53;;;4.83;;
19036;SDS011;9651;49.138;8.900;2024-01-15T18:50:11;11.43;;;5.10;;
19036;SDS011;9651;49.138;8.900;2024-01-15T18:54:14;7.97;;;4.90;;
19036;SDS011;9651;49.138;8.900;2024-01-15T18:58:16;9.73;;;5.47;;
19036;SDS011;9651;49.138;8.900;2024-01-15T19:02:19;7.80;;;4.53;;
19036;SDS011;9651;49.138;8.900;2024-01-15T19:06:22;10.57;;;4.57;;
19036;SDS011;9651;49.138;8.900;2024-01-15T19:10:25;11.17;;;4.57;;
19036;SDS011;9651;49.138;8.900;2024-01-15T19:14:27;8.80;;;4.63;;
19036;SDS011;9651;49.138;8.900;2024-01-15T19:18:29;8.83;;;4.60;;
19036;SDS011;9651;49.138;8.900;2024-01-15T19:22:31;11.47;;;4.53;;
19036;SDS011;9651;49.138;8.900;2024-01-15T19:26:35;7.90;;;3.97;;
19036;SDS011;9651;49.138;8.900;2024-01-15T19:30:36;7.83;;;4.10;;
19036;SDS011;9651;49.138;8.900;2024-01-15T19:34:40;7.90;;;4.43;;
19036;SDS011;9651;49.138;8.900;2024-01-15T19:38:42;6.57;;;4.17;;
19036;SDS011;9651;49.138;8.900;2024-01-15T19:42:45;6.03;;;4.00;;
19036;SDS011;9651;49.138;8.900;2024-01-15T19:46:47;8.07;;;4.73;;
19036;SDS011;9651;49.138;8.900;2024-01-15T19:50:48;8.20;;;4.63;;
19036;SDS011;9651;49.138;8.900;2024-01-15T19:54:50;9.00;;;4.67;;
19036;SDS011;9651;49.138;8.900;2024-01-15T19:58:54;8.80;;;4.47;;
19036;SDS011;9651;49.138;8.900;2024-01-15T20:02:55;8.67;;;5.30;;
19036;SDS011;9651;49.138;8.900;2024-01-15T20:06:57;9.00;;;4.43;;
19036;SDS011;9651;49.138;8.900;2024-01-15T20:10:59;8.77;;;4.67;;
19036;SDS011;9651;49.138;8.900;2024-01-15T20:15:04;13.00;;;5.77;;
19036;SDS011;9651;49.138;8.900;2024-01-15T20:19:06;12.07;;;5.63;;
19036;SDS011;9651;49.138;8.900;2024-01-15T20:23:08;7.70;;;4.70;;
19036;SDS011;9651;49.138;8.900;2024-01-15T20:27:10;9.53;;;4.57;;
19036;SDS011;9651;49.138;8.900;2024-01-15T20:31:13;8.13;;;4.27;;
19036;SDS011;9651;49.138;8.900;2024-01-15T20:35:15;9.93;;;4.97;;
19036;SDS011;9651;49.138;8.900;2024-01-15T20:39:18;9.67;;;4.27;;
19036;SDS011;9651;49.138;8.900;2024-01-15T20:43:20;10.03;;;4.40;;
19036;SDS011;9651;49.138;8.900;2024-01-15T20:47:23;9.10;;;4.13;;
19036;SDS011;9651;49.138;8.900;2024-01-15T20:51:25;7.03;;;4.23;;
19036;SDS011;9651;49.138;8.900;2024-01-15T20:55:27;7.43;;;4.20;;
19036;SDS011;9651;49.138;8.900;2024-01-15T20:59:29;8.80;;;4.13;;
19036;SDS011;9651;49.138;8.900;2024-01-15T21:03:32;7.43;;;4.17;;
19036;SDS011;9651;49.138;8.900;2024-01-15T21:07:35;7.70;;;4.40;;
19036;SDS011;9651;49.138;8.900;2024-01-15T21:11:37;6.77;;;4.67;;
19036;SDS011;9651;49.138;8.900;2024-01-15T21:15:39;11.33;;;5.10;;
19036;SDS011;9651;49.138;8.900;2024-01-15T21:19:42;7.63;;;3.70;;
19036;SDS011;9651;49.138;8.900;2024-01-15T21:23:44;10.60;;;4.90;;
19036;SDS011;9651;49.138;8.900;2024-01-15T21:27:46;9.13;;;4.83;;
19036;SDS011;9651;49.138;8.900;2024-01-15T21:31:48;11.07;;;5.07;;
19036;SDS011;9651;49.138;8.900;2024-01-15T21:35:51;8.33;;;4.77;;
19036;SDS011;9651;49.138;8.900;2024-01-15T21:39:53;12.20;;;5.53;;
19036;SDS011;9651;49.138;8.900;2024-01-15T21:43:55;9.47;;;4.80;;
19036;SDS011;9651;49.138;8.900;2024-01-15T21:47:57;11.40;;;5.30;;
19036;SDS011;9651;49.138;8.900;2024-01-15T21:52:00;13.13;;;4.87;;
19036;SDS011;9651;49.138;8.900;2024-01-15T21:56:03;10.27;;;4.80;;
19036;SDS011;9651;49.138;8.900;2024-01-15T22:00:06;8.50;;;4.97;;
19036;SDS011;9651;49.138;8.900;2024-01-15T22:04:12;12.37;;;5.00;;
19036;SDS011;9651;49.138;8.900;2024-01-15T22:08:15;12.67;;;5.43;;
19036;SDS011;9651;49.138;8.900;2024-01-15T22:12:17;8.73;;;4.57;;
19036;SDS011;9651;49.138;8.900;2024-01-15T22:16:19;10.60;;;4.80;;
19036;SDS011;9651;49.138;8.900;2024-01-15T22:20:20;11.37;;;4.80;;
19036;SDS011;9651;49.138;8.900;2024-01-15T22:24:24;12.10;;;5.03;;
19036;SDS011;9651;49.138;8.900;2024-01-15T22:28:26;9.57;;;4.67;;
19036;SDS011;9651;49.138;8.900;2024-01-15T22:32:27;8.90;;;4.10;;
19036;SDS011;9651;49.138;8.900;2024-01-15T22:36:29;9.50;;;4.37;;
19036;SDS011;9651;49.138;8.900;2024-01-15T22:40:33;11.27;;;4.90;;
19036;SDS011;9651;49.138;8.900;2024-01-15T22:44:34;7.70;;;4.60;;
19036;SDS011;9651;49.138;8.900;2024-01-15T22:48:36;7.23;;;3.90;;
19036;SDS011;9651;49.138;8.900;2024-01-15T22:52:38;7.13;;;4.20;;
19036;SDS011;9651;49.138;8.900;2024-01-15T22:56:41;10.20;;;4.80;;
19036;SDS011;9651;49.138;8.900;2024-01-15T23:00:43;8.50;;;4.33;;
19036;SDS011;9651;49.138;8.900;2024-01-15T23:04:46;9.17;;;4.13;;
19036;SDS011;9651;49.138;8.900;2024-01-15T23:08:49;9.17;;;4.27;;
19036;SDS011;9651;49.138;8.900;2024-01-15T23:12:52;6.27;;;3.97;;
19036;SDS011;9651;49.138;8.900;2024-01-15T23:16:54;7.53;;;3.97;;
19036;SDS011;9651;49.138;8.900;2024-01-15T23:20:57;9.27;;;4.87;;
19036;SDS011;9651;49.138;8.900;2024-01-15T23:24:58;8.30;;;4.77;;
19036;SDS011;9651;49.138;8.900;2024-01-15T23:29:02;6.27;;;3.93;;
19036;SDS011;9651;49.138;8.900;2024-01-15T23:33:05;6.87;;;3.70;;
19036;SDS011;9651;49.138;8.900;2024-01-15T23:37:07;6.97;;;4.57;;
19036;SDS011;9651;49.138;8.900;2024-01-15T23:41:16;10.53;;;4.93;;
19036;SDS011;9651;49.138;8.900;2024-01-15T23:45:20;10.00;;;4.30;;
19036;SDS011;9651;49.138;8.900;2024-01-15T23:49:22;9.73;;;4.87;;
19036;SDS011;9651;49.138;8.900;2024-01-15T23:53:24;7.13;;;4.33;;
19036;SDS011;9651;49.138;8.900;2024-01-15T23:57:26;6.37;;;4.03;;
